createdAt,value
2024-02-03T00:00:06.413Z,84.58
2024-02-03T00:01:04.341Z,84.47
2024-02-03T00:02:04.905Z,84.21
2024-02-03T00:03:05.134Z,84.15
2024-02-03T00:04:05.213Z,84.12
2024-02-03T00:05:03.966Z,84.17
2024-02-03T00:06:04.153Z,84.23
2024-02-03T00:07:04.719Z,84.15
2024-02-03T00:08:04.531Z,84.16
2024-02-03T00:09:03.908Z,84.19
2024-02-03T00:10:04.589Z,84.27
2024-02-03T00:11:03.726Z,84.24
2024-02-03T00:12:04.185Z,84.11
2024-02-03T00:13:04.138Z,84.19
2024-02-03T00:14:06.175Z,84.18
2024-02-03T00:15:04.518Z,84.25
2024-02-03T00:16:04.466Z,84.30
2024-02-03T00:17:04.006Z,84.30
2024-02-03T00:18:03.702Z,84.13
2024-02-03T00:19:04.433Z,83.94
2024-02-03T00:20:04.682Z,84.17
2024-02-03T00:21:04.081Z,84.33
2024-02-03T00:22:04.378Z,84.32
2024-02-03T00:23:03.949Z,84.34
2024-02-03T00:24:04.802Z,84.33
2024-02-03T00:25:04.245Z,84.20
2024-02-03T00:26:03.903Z,84.32
2024-02-03T00:27:03.903Z,84.29
2024-02-03T00:28:03.584Z,84.22
2024-02-03T00:29:03.987Z,84.34
2024-02-03T00:30:04.296Z,84.27
2024-02-03T00:31:04.513Z,84.23
2024-02-03T00:32:03.944Z,84.35
2024-02-03T00:33:04.112Z,84.27
2024-02-03T00:34:04.284Z,84.19
2024-02-03T00:35:04.213Z,84.28
2024-02-03T00:36:03.602Z,84.33
2024-02-03T00:37:04.141Z,84.24
2024-02-03T00:38:04.381Z,84.17
2024-02-03T00:39:04.014Z,83.96
2024-02-03T00:40:03.920Z,84.08
2024-02-03T00:41:04.436Z,84.15
2024-02-03T00:42:03.804Z,84.18
2024-02-03T00:43:03.955Z,84.12
2024-02-03T00:44:04.403Z,84.18
2024-02-03T00:45:04.224Z,84.03
2024-02-03T00:46:04.590Z,84.06
2024-02-03T00:47:04.132Z,83.99
2024-02-03T00:48:04.889Z,83.97
2024-02-03T00:49:03.960Z,84.12
2024-02-03T00:50:04.463Z,84.21
2024-02-03T00:51:04.082Z,84.34
2024-02-03T00:52:04.857Z,84.20
2024-02-03T00:53:03.811Z,84.26
2024-02-03T00:54:03.818Z,84.11
2024-02-03T00:55:04.177Z,84.03
2024-02-03T00:56:03.658Z,84.15
2024-02-03T00:57:04.171Z,84.22
2024-02-03T00:58:04.577Z,84.23
2024-02-03T00:59:04.222Z,84.20
2024-02-03T01:00:05.983Z,84.26
2024-02-03T01:01:04.245Z,84.21
2024-02-03T01:02:04.909Z,84.20
2024-02-03T01:03:03.937Z,84.13
2024-02-03T01:04:04.559Z,83.97
2024-02-03T01:05:04.016Z,83.84
2024-02-03T01:06:04.765Z,83.96
2024-02-03T01:07:04.019Z,84.09
2024-02-03T01:08:04.627Z,84.19
2024-02-03T01:09:03.956Z,84.05
2024-02-03T01:10:04.754Z,84
2024-02-03T01:11:03.781Z,84.08
2024-02-03T01:12:04.268Z,84.11
2024-02-03T01:13:03.820Z,84.16
2024-02-03T01:14:04.245Z,84.03
2024-02-03T01:15:04.495Z,83.97
2024-02-03T01:16:04.271Z,84.07
2024-02-03T01:17:03.846Z,84.12
2024-02-03T01:18:04.756Z,84.08
2024-02-03T01:19:04.272Z,84.17
2024-02-03T01:20:04.272Z,84.12
2024-02-03T01:21:03.662Z,84.19
2024-02-03T01:22:04.080Z,84.30
2024-02-03T01:23:04.201Z,84.26
2024-02-03T01:24:04.111Z,84.23
2024-02-03T01:25:04.356Z,84.22
2024-02-03T01:26:04.790Z,84.30
2024-02-03T01:27:04.186Z,84.29
2024-02-03T01:28:04.469Z,84.26
2024-02-03T01:29:03.824Z,84.34
2024-02-03T01:30:04.692Z,84.47
2024-02-03T01:31:03.747Z,84.59
2024-02-03T01:32:04.516Z,84.54
2024-02-03T01:33:04.087Z,84.40
2024-02-03T01:34:05.234Z,84.45
2024-02-03T01:35:04.009Z,84.46
2024-02-03T01:36:04.276Z,84.49
2024-02-03T01:37:04.530Z,84.60
2024-02-03T01:38:04.063Z,84.56
2024-02-03T01:39:04.271Z,84.62
2024-02-03T01:40:04.053Z,84.58
2024-02-03T01:41:04.343Z,84.54
2024-02-03T01:42:03.865Z,84.57
2024-02-03T01:43:04.079Z,84.63
2024-02-03T01:44:04.443Z,84.69
2024-02-03T01:45:05.068Z,84.67
2024-02-03T01:46:03.736Z,84.73
2024-02-03T01:47:04.274Z,84.76
2024-02-03T01:48:04.236Z,84.80
2024-02-03T01:49:04.464Z,84.84
2024-02-03T01:50:04.549Z,84.81
2024-02-03T01:51:03.692Z,84.88
2024-02-03T01:52:03.728Z,84.88
2024-02-03T01:53:04.301Z,84.97
2024-02-03T01:54:04.035Z,84.93
2024-02-03T01:55:03.949Z,84.83
2024-02-03T01:56:04.406Z,84.92
2024-02-03T01:57:04.208Z,85.02
2024-02-03T01:58:04.156Z,85.07
2024-02-03T01:59:03.852Z,85.14
2024-02-03T02:00:05.869Z,85.11
2024-02-03T02:01:04.195Z,84.98
2024-02-03T02:02:04.512Z,85.03
2024-02-03T02:03:04.138Z,85.05
2024-02-03T02:04:04.349Z,85.02
2024-02-03T02:05:04.380Z,84.95
2024-02-03T02:06:03.809Z,85.06
2024-02-03T02:07:04.028Z,85.20
2024-02-03T02:08:03.813Z,85.22
2024-02-03T02:09:04.192Z,85.24
2024-02-03T02:10:04.481Z,85.28
2024-02-03T02:11:03.892Z,85.28
2024-02-03T02:12:04.022Z,85.29
2024-02-03T02:13:04.308Z,85.48
2024-02-03T02:14:04.858Z,85.50
2024-02-03T02:15:04.086Z,85.50
2024-02-03T02:16:04.346Z,85.46
2024-02-03T02:17:03.760Z,85.34
2024-02-03T02:18:03.989Z,85.40
2024-02-03T02:19:04.315Z,85.52
2024-02-03T02:20:04.589Z,85.69
2024-02-03T02:21:03.926Z,85.69
2024-02-03T02:22:03.916Z,85.63
2024-02-03T02:23:04.035Z,85.62
2024-02-03T02:24:04.125Z,85.67
2024-02-03T02:25:04.393Z,85.44
2024-02-03T02:26:03.712Z,85.45
2024-02-03T02:27:03.976Z,85.46
2024-02-03T02:28:04.180Z,85.52
2024-02-03T02:29:04.091Z,85.55
2024-02-03T02:30:04.715Z,85.59
2024-02-03T02:31:03.731Z,85.61
2024-02-03T02:32:04.261Z,85.63
2024-02-03T02:33:04.710Z,85.63
2024-02-03T02:34:03.828Z,85.61
2024-02-03T02:35:04.082Z,85.57
2024-02-03T02:36:04.424Z,85.53
2024-02-03T02:37:04.431Z,85.46
2024-02-03T02:38:03.642Z,85.47
2024-02-03T02:39:03.938Z,85.41
2024-02-03T02:40:04.264Z,85.38
2024-02-03T02:41:04.130Z,85.41
2024-02-03T02:42:04.179Z,85.48
2024-02-03T02:43:04.418Z,85.34
2024-02-03T02:44:03.784Z,85.35
2024-02-03T02:45:04.679Z,85.34
2024-02-03T02:46:04.022Z,85.39
2024-02-03T02:47:04.889Z,85.34
2024-02-03T02:48:05.000Z,85.31
2024-02-03T02:49:04.423Z,85.31
2024-02-03T02:50:04.488Z,85.30
2024-02-03T02:51:04.025Z,85.29
2024-02-03T02:52:04.258Z,85.34
2024-02-03T02:53:04.549Z,85.33
2024-02-03T02:54:03.925Z,85.25
2024-02-03T02:55:04.211Z,85.22
2024-02-03T02:56:03.361Z,85.13
2024-02-03T02:57:03.926Z,84.99
2024-02-03T02:58:04.084Z,85.01
2024-02-03T02:59:03.608Z,84.94
2024-02-03T03:00:05.582Z,84.85
2024-02-03T03:01:04.224Z,84.84
2024-02-03T03:02:04.677Z,84.81
2024-02-03T03:03:03.961Z,84.78
2024-02-03T03:04:04.737Z,84.81
2024-02-03T03:05:03.962Z,84.81
2024-02-03T03:06:04.412Z,84.84
2024-02-03T03:07:03.827Z,84.81
2024-02-03T03:08:04.036Z,84.80
2024-02-03T03:09:04.357Z,84.78
2024-02-03T03:10:04.061Z,84.66
2024-02-03T03:11:03.758Z,84.69
2024-02-03T03:12:04.497Z,84.68
2024-02-03T03:13:04.159Z,84.66
2024-02-03T03:14:03.725Z,84.66
2024-02-03T03:15:04.754Z,84.62
2024-02-03T03:16:05.255Z,84.68
2024-02-03T03:17:05.492Z,84.66
2024-02-03T03:18:04.149Z,84.66
2024-02-03T03:19:04.655Z,84.66
2024-02-03T03:20:03.968Z,84.65
2024-02-03T03:21:04.053Z,84.57
2024-02-03T03:22:04.264Z,84.56
2024-02-03T03:23:04.512Z,84.52
2024-02-03T03:24:04.604Z,84.53
2024-02-03T03:25:03.951Z,84.51
2024-02-03T03:26:04.009Z,84.5
2024-02-03T03:27:04.334Z,84.45
2024-02-03T03:28:04.597Z,84.49
2024-02-03T03:29:03.756Z,84.44
2024-02-03T03:30:04.625Z,84.48
2024-02-03T03:31:03.681Z,84.55
2024-02-03T03:32:04.218Z,84.53
2024-02-03T03:33:04.226Z,84.54
2024-02-03T03:34:04.865Z,84.50
2024-02-03T03:35:04.391Z,84.42
2024-02-03T03:36:03.800Z,84.41
2024-02-03T03:37:04.421Z,84.40
2024-02-03T03:38:03.824Z,84.41
2024-02-03T03:39:04.201Z,84.38
2024-02-03T03:40:04.603Z,84.36
2024-02-03T03:41:04.044Z,84.33
2024-02-03T03:42:04.428Z,84.39
2024-02-03T03:43:04.412Z,84.47
2024-02-03T03:44:03.716Z,84.52
2024-02-03T03:45:04.723Z,84.45
2024-02-03T03:46:04.261Z,84.43
2024-02-03T03:47:03.809Z,84.40
2024-02-03T03:48:03.735Z,84.40
2024-02-03T03:49:04.307Z,84.40
2024-02-03T03:50:04.942Z,84.46
2024-02-03T03:51:04.495Z,84.46
2024-02-03T03:52:03.894Z,84.40
2024-02-03T03:53:04.062Z,84.37
2024-02-03T03:54:04.431Z,84.42
2024-02-03T03:55:04.042Z,84.42
2024-02-03T03:56:03.989Z,84.41
2024-02-03T03:57:04.397Z,84.41
2024-02-03T03:58:03.766Z,84.40
2024-02-03T03:59:03.969Z,84.40
2024-02-03T04:00:05.965Z,84.47
2024-02-03T04:01:04.247Z,84.52
2024-02-03T04:02:04.314Z,84.60
2024-02-03T04:03:04.054Z,84.59
2024-02-03T04:04:03.835Z,84.56
2024-02-03T04:05:04.067Z,84.61
2024-02-03T04:06:04.777Z,84.59
2024-02-03T04:07:04.201Z,84.59
2024-02-03T04:08:04.590Z,84.64
2024-02-03T04:09:03.533Z,84.66
2024-02-03T04:10:04.019Z,84.72
2024-02-03T04:11:03.682Z,84.75
2024-02-03T04:12:03.790Z,84.71
2024-02-03T04:13:04.268Z,84.65
2024-02-03T04:14:04.400Z,84.69
2024-02-03T04:15:03.944Z,84.76
2024-02-03T04:16:04.181Z,84.71
2024-02-03T04:17:03.953Z,84.81
2024-02-03T04:18:04.524Z,84.80
2024-02-03T04:19:05.024Z,84.86
2024-02-03T04:20:05.519Z,84.82
2024-02-03T04:21:04.322Z,84.84
2024-02-03T04:22:03.528Z,84.80
2024-02-03T04:23:03.536Z,84.85
2024-02-03T04:24:03.875Z,84.98
2024-02-03T04:25:04.648Z,84.99
2024-02-03T04:26:04.224Z,84.93
2024-02-03T04:27:04.519Z,84.94
2024-02-03T04:28:03.993Z,84.89
2024-02-03T04:29:04.298Z,84.97
2024-02-03T04:30:25.178Z,85.06
2024-02-03T04:31:04.223Z,85.06
2024-02-03T04:32:04.552Z,85.08
2024-02-03T04:33:04.753Z,85.11
2024-02-03T04:34:04.172Z,85.12
2024-02-03T04:35:04.322Z,85.13
2024-02-03T04:36:03.820Z,85.15
2024-02-03T04:37:04.143Z,85.08
2024-02-03T04:38:04.088Z,85.00
2024-02-03T04:39:03.824Z,85.05
2024-02-03T04:40:04.309Z,85.12
2024-02-03T04:41:03.914Z,85.13
2024-02-03T04:42:03.962Z,85.04
2024-02-03T04:43:04.384Z,85.14
2024-02-03T04:44:03.767Z,85.07
2024-02-03T04:45:04.515Z,85.05
2024-02-03T04:46:04.553Z,85.09
2024-02-03T04:47:04.852Z,85.20
2024-02-03T04:48:04.845Z,85.25
2024-02-03T04:49:04.324Z,85.35
2024-02-03T04:50:04.688Z,85.39
2024-02-03T04:51:03.988Z,85.34
2024-02-03T04:52:05.603Z,85.35
2024-02-03T04:53:03.906Z,85.20
2024-02-03T04:54:04.329Z,85.19
2024-02-03T04:55:03.895Z,85.23
2024-02-03T04:56:03.618Z,85.38
2024-02-03T04:57:03.923Z,85.37
2024-02-03T04:58:04.075Z,85.41
2024-02-03T04:59:04.605Z,85.41
2024-02-03T05:00:05.724Z,85.48
2024-02-03T05:01:04.349Z,85.45
2024-02-03T05:02:03.921Z,85.41
2024-02-03T05:03:04.485Z,85.48
2024-02-03T05:04:04.233Z,85.5
2024-02-03T05:05:04.672Z,85.49
2024-02-03T05:06:03.934Z,85.40
2024-02-03T05:07:04.685Z,85.44
2024-02-03T05:08:04.858Z,85.53
2024-02-03T05:09:04.096Z,85.55
2024-02-03T05:10:04.544Z,85.51
2024-02-03T05:11:03.981Z,85.51
2024-02-03T05:12:04.786Z,85.54
2024-02-03T05:13:03.897Z,85.51
2024-02-03T05:14:04.399Z,85.62
2024-02-03T05:15:07.116Z,85.57
2024-02-03T05:16:04.252Z,85.61
2024-02-03T05:17:03.888Z,85.56
2024-02-03T05:18:03.785Z,85.62
2024-02-03T05:19:03.988Z,85.68
2024-02-03T05:20:04.455Z,85.72
2024-02-03T05:21:03.728Z,85.74
2024-02-03T05:22:04.061Z,85.60
2024-02-03T05:23:04.298Z,85.62
2024-02-03T05:24:03.673Z,85.69
2024-02-03T05:25:04.537Z,85.71
2024-02-03T05:26:04.257Z,85.71
2024-02-03T05:27:03.859Z,85.88
2024-02-03T05:28:04.477Z,85.96
2024-02-03T05:29:03.588Z,85.88
2024-02-03T05:30:04.468Z,85.85
2024-02-03T05:31:04.168Z,86.00
2024-02-03T05:32:04.133Z,85.89
2024-02-03T05:33:04.761Z,85.90
2024-02-03T05:34:04.098Z,86.00
2024-02-03T05:35:04.127Z,86.04
2024-02-03T05:36:04.402Z,86.04
2024-02-03T05:37:04.590Z,86.01
2024-02-03T05:38:03.866Z,85.88
2024-02-03T05:39:03.964Z,86.06
2024-02-03T05:40:04.551Z,86.10
2024-02-03T05:41:03.671Z,86.12
2024-02-03T05:42:03.575Z,86.14
2024-02-03T05:43:04.029Z,86.12
2024-02-03T05:44:03.908Z,86.26
2024-02-03T05:45:04.568Z,86.32
2024-02-03T05:46:04.085Z,86.39
2024-02-03T05:47:04.122Z,86.36
2024-02-03T05:48:04.328Z,86.28
2024-02-03T05:49:04.340Z,86.25
2024-02-03T05:50:04.312Z,86.32
2024-02-03T05:51:03.686Z,86.37
2024-02-03T05:52:04.264Z,86.29
2024-02-03T05:53:07.609Z,86.27
2024-02-03T05:54:04.861Z,86.30
2024-02-03T05:55:04.435Z,86.27
2024-02-03T05:56:05.129Z,86.20
2024-02-03T05:57:03.713Z,86.24
2024-02-03T05:58:04.033Z,86.22
2024-02-03T05:59:36.048Z,85.82
2024-02-03T06:00:05.690Z,85.82
2024-02-03T06:01:04.918Z,85.82
2024-02-03T06:02:04.358Z,85.88
2024-02-03T06:03:03.637Z,86.00
2024-02-03T06:04:04.171Z,86.04
2024-02-03T06:05:04.777Z,85.99
2024-02-03T06:06:22.070Z,85.99
2024-02-03T06:07:04.265Z,86.01
2024-02-03T06:08:04.034Z,86.03
2024-02-03T06:09:04.321Z,86.02
2024-02-03T06:10:04.516Z,85.84
2024-02-03T06:11:04.104Z,85.83
2024-02-03T06:12:05.531Z,85.78
2024-02-03T06:13:08.316Z,85.84
2024-02-03T06:14:03.814Z,85.86
2024-02-03T06:15:04.592Z,85.88
2024-02-03T06:16:04.231Z,85.89
2024-02-03T06:17:04.194Z,85.86
2024-02-03T06:18:04.116Z,85.83
2024-02-03T06:19:04.286Z,85.70
2024-02-03T06:20:04.567Z,85.73
2024-02-03T06:21:03.728Z,85.77
2024-02-03T06:22:04.192Z,85.75
2024-02-03T06:23:03.569Z,85.72
2024-02-03T06:24:03.718Z,85.73
2024-02-03T06:25:04.231Z,85.72
2024-02-03T06:26:04.562Z,85.72
2024-02-03T06:27:03.935Z,85.65
2024-02-03T06:28:04.344Z,85.59
2024-02-03T06:29:03.694Z,85.49
2024-02-03T06:30:04.701Z,85.55
2024-02-03T06:31:05.932Z,85.48
2024-02-03T06:32:04.334Z,85.40
2024-02-03T06:33:04.230Z,85.40
2024-02-03T06:34:04.838Z,85.48
2024-02-03T06:35:04.196Z,85.61
2024-02-03T06:36:03.982Z,85.44
2024-02-03T06:37:03.936Z,85.31
2024-02-03T06:38:04.281Z,85.33
2024-02-03T06:39:03.921Z,85.38
2024-02-03T06:40:04.636Z,85.32
2024-02-03T06:41:03.676Z,85.36
2024-02-03T06:42:03.918Z,85.35
2024-02-03T06:43:03.982Z,85.40
2024-02-03T06:44:04.082Z,85.44
2024-02-03T06:45:05.783Z,85.40
2024-02-03T06:46:03.938Z,85.28
2024-02-03T06:47:04.530Z,85.28
2024-02-03T06:48:04.402Z,85.45
2024-02-03T06:49:04.682Z,85.32
2024-02-03T06:50:04.255Z,85.30
2024-02-03T06:51:03.793Z,85.40
2024-02-03T06:52:04.017Z,85.23
2024-02-03T06:53:04.078Z,85.19
2024-02-03T06:54:04.391Z,85.03
2024-02-03T06:55:04.415Z,85.08
2024-02-03T06:56:04.055Z,85.17
2024-02-03T06:57:04.324Z,85.05
2024-02-03T06:58:03.788Z,84.92
2024-02-03T06:59:03.824Z,84.93
2024-02-03T07:00:06.373Z,84.85
2024-02-03T07:01:06.600Z,84.89
2024-02-03T07:02:04.503Z,84.95
2024-02-03T07:03:04.173Z,84.89
2024-02-03T07:04:04.813Z,84.88
2024-02-03T07:05:04.235Z,84.90
2024-02-03T07:06:04.617Z,84.93
2024-02-03T07:07:04.130Z,84.88
2024-02-03T07:08:04.190Z,84.89
2024-02-03T07:09:04.543Z,84.87
2024-02-03T07:10:04.077Z,84.80
2024-02-03T07:11:03.831Z,84.87
2024-02-03T07:12:09.187Z,84.85
2024-02-03T07:13:05.214Z,84.77
2024-02-03T07:14:04.004Z,84.72
2024-02-03T07:15:04.965Z,84.64
2024-02-03T07:16:04.970Z,84.59
2024-02-03T07:17:04.762Z,84.56
2024-02-03T07:18:04.260Z,84.51
2024-02-03T07:19:04.678Z,84.48
2024-02-03T07:20:03.843Z,84.41
2024-02-03T07:21:04.526Z,84.41
2024-02-03T07:22:03.884Z,84.43
2024-02-03T07:23:03.968Z,84.51
2024-02-03T07:24:04.277Z,84.47
2024-02-03T07:25:03.934Z,84.52
2024-02-03T07:26:03.758Z,84.44
2024-02-03T07:27:03.902Z,84.44
2024-02-03T07:28:03.998Z,84.40
2024-02-03T07:29:04.255Z,84.36
2024-02-03T07:30:04.212Z,84.38
2024-02-03T07:31:04.703Z,84.38
2024-02-03T07:32:04.330Z,84.37
2024-02-03T07:33:03.585Z,84.36
2024-02-03T07:34:04.187Z,84.31
2024-02-03T07:35:04.892Z,84.32
2024-02-03T07:36:04.106Z,84.23
2024-02-03T07:37:04.082Z,84.20
2024-02-03T07:38:04.026Z,84.19
2024-02-03T07:39:04.528Z,84.05
2024-02-03T07:40:04.115Z,84.18
2024-02-03T07:41:04.605Z,84.24
2024-02-03T07:42:03.884Z,84.23
2024-02-03T07:43:04.295Z,84.30
2024-02-03T07:44:03.554Z,84.38
2024-02-03T07:45:04.309Z,84.40
2024-02-03T07:46:04.417Z,84.30
2024-02-03T07:47:03.941Z,84.26
2024-02-03T07:48:04.879Z,84.25
2024-02-03T07:49:04.147Z,84.18
2024-02-03T07:50:04.260Z,84.19
2024-02-03T07:51:04.124Z,84.19
2024-02-03T07:52:05.996Z,84.10
2024-02-03T07:53:03.381Z,84.15
2024-02-03T07:54:03.599Z,84.07
2024-02-03T07:55:04.128Z,84.16
2024-02-03T07:56:04.308Z,84.20
2024-02-03T07:57:03.842Z,84.19
2024-02-03T07:58:04.099Z,84.13
2024-02-03T07:59:04.117Z,84.19
2024-02-03T08:00:05.819Z,84.31
2024-02-03T08:01:04.731Z,84.32
2024-02-03T08:02:04.338Z,84.32
2024-02-03T08:03:04.106Z,84.34
2024-02-03T08:04:04.774Z,84.29
2024-02-03T08:05:04.804Z,84.30
2024-02-03T08:06:04.445Z,84.23
2024-02-03T08:07:05.358Z,84.25
2024-02-03T08:08:03.907Z,84.11
2024-02-03T08:09:04.344Z,84.10
2024-02-03T08:10:04.306Z,84.17
2024-02-03T08:11:03.892Z,84.13
2024-02-03T08:12:04.055Z,84.15
2024-02-03T08:13:04.818Z,84.19
2024-02-03T08:14:03.886Z,84.13
2024-02-03T08:15:04.545Z,84.01
2024-02-03T08:16:04.209Z,83.95
2024-02-03T08:17:03.965Z,83.85
2024-02-03T08:18:04.166Z,83.78
2024-02-03T08:19:04.428Z,83.80
2024-02-03T08:20:10.505Z,83.86
2024-02-03T08:21:04.656Z,83.76
2024-02-03T08:22:04.003Z,83.68
2024-02-03T08:23:04.169Z,83.79
2024-02-03T08:24:04.381Z,83.85
2024-02-03T08:25:04.260Z,83.94
2024-02-03T08:26:04.667Z,83.95
2024-02-03T08:27:03.595Z,84.08
2024-02-03T08:28:04.242Z,84.09
2024-02-03T08:29:03.882Z,84.02
2024-02-03T08:30:04.911Z,83.93
2024-02-03T08:31:04.484Z,83.97
2024-02-03T08:32:04.093Z,83.98
2024-02-03T08:33:04.086Z,83.95
2024-02-03T08:34:04.860Z,84.01
2024-02-03T08:36:07.761Z,84.06
2024-02-03T08:37:04.255Z,84.09
2024-02-03T08:38:04.578Z,84.13
2024-02-03T08:39:03.895Z,84.24
2024-02-03T08:40:04.342Z,84.25
2024-02-03T08:41:04.443Z,84.09
2024-02-03T08:42:03.665Z,84
2024-02-03T08:43:03.966Z,84.08
2024-02-03T08:44:03.918Z,84.15
2024-02-03T08:45:04.528Z,84.18
2024-02-03T08:46:04.670Z,84.23
2024-02-03T08:47:04.779Z,84.21
2024-02-03T08:48:04.030Z,84.24
2024-02-03T08:49:04.114Z,84.23
2024-02-03T08:50:04.418Z,84.20
2024-02-03T08:51:04.101Z,84.21
2024-02-03T08:52:04.526Z,84.14
2024-02-03T08:53:03.858Z,84.10
2024-02-03T08:54:04.097Z,84.01
2024-02-03T08:55:04.630Z,83.96
2024-02-03T08:56:03.637Z,83.84
2024-02-03T08:57:04.094Z,83.90
2024-02-03T08:58:04.528Z,84.03
2024-02-03T08:59:04.451Z,84.02
2024-02-03T09:00:06.246Z,83.79
2024-02-03T09:01:04.864Z,83.69
2024-02-03T09:02:04.206Z,83.63
2024-02-03T09:03:03.808Z,83.58
2024-02-03T09:04:04.517Z,83.55
2024-02-03T09:05:04.034Z,83.55
2024-02-03T09:06:04.725Z,83.54
2024-02-03T09:07:03.627Z,83.52
2024-02-03T09:08:03.991Z,83.58
2024-02-03T09:09:04.398Z,83.46
2024-02-03T09:10:04.054Z,83.50
2024-02-03T09:11:04.098Z,83.56
2024-02-03T09:12:04.429Z,83.63
2024-02-03T09:13:03.560Z,83.71
2024-02-03T09:14:04.056Z,83.80
2024-02-03T09:15:05.010Z,83.77
2024-02-03T09:16:03.862Z,83.51
2024-02-03T09:17:04.768Z,83.54
2024-02-03T09:18:04.018Z,83.50
2024-02-03T09:19:04.624Z,83.50
2024-02-03T09:20:05.497Z,83.65
2024-02-03T09:21:03.490Z,83.55
2024-02-03T09:22:04.469Z,83.56
2024-02-03T09:23:03.894Z,83.70
2024-02-03T09:24:04.054Z,83.66
2024-02-03T09:25:04.608Z,83.59
2024-02-03T09:26:04.130Z,83.51
2024-02-03T09:27:04.344Z,83.38
2024-02-03T09:28:03.841Z,83.52
2024-02-03T09:29:04.363Z,83.53
2024-02-03T09:30:04.387Z,83.53
2024-02-03T09:31:03.759Z,83.53
2024-02-03T09:32:04.452Z,83.60
2024-02-03T09:33:04.199Z,83.61
2024-02-03T09:34:04.338Z,83.70
2024-02-03T09:35:04.547Z,83.59
2024-02-03T09:36:03.649Z,83.65
2024-02-03T09:38:04.749Z,83.49
2024-02-03T09:39:04.153Z,83.51
2024-02-03T09:40:04.508Z,83.45
2024-02-03T09:41:04.256Z,83.41
2024-02-03T09:42:04.659Z,83.30
2024-02-03T09:43:04.905Z,83.37
2024-02-03T09:44:04.649Z,83.08
2024-02-03T09:45:06.678Z,82.95
2024-02-03T09:46:03.658Z,82.84
2024-02-03T09:47:04.416Z,83.00
2024-02-03T09:48:04.069Z,83.09
2024-02-03T09:49:04.466Z,82.90
2024-02-03T09:50:04.167Z,83.11
2024-02-03T09:51:05.102Z,83.23
2024-02-03T09:52:04.291Z,83.30
2024-02-03T09:53:04.322Z,83.29
2024-02-03T09:54:03.744Z,83.26
2024-02-03T09:55:04.100Z,83.34
2024-02-03T09:56:04.680Z,83.29
2024-02-03T09:57:04.128Z,83.22
2024-02-03T09:58:04.385Z,83.14
2024-02-03T09:59:03.977Z,83.09
2024-02-03T10:00:05.777Z,83.12
2024-02-03T10:01:04.393Z,82.91
2024-02-03T10:02:04.890Z,82.53
2024-02-03T10:03:03.648Z,82.40
2024-02-03T10:04:04.306Z,82.39
2024-02-03T10:05:04.931Z,82.64
2024-02-03T10:06:05.090Z,82.59
2024-02-03T10:07:04.322Z,82.61
2024-02-03T10:08:04.275Z,82.57
2024-02-03T10:09:04.785Z,82.44
2024-02-03T10:11:03.864Z,82.40
2024-02-03T10:12:04.453Z,82.41
2024-02-03T10:13:04.120Z,82.55
2024-02-03T10:14:04.586Z,82.69
2024-02-03T10:15:04.473Z,82.70
2024-02-03T10:16:04.407Z,82.72
2024-02-03T10:17:04.617Z,82.70
2024-02-03T10:18:09.158Z,82.67
2024-02-03T10:19:03.908Z,82.63
2024-02-03T10:20:04.696Z,82.56
2024-02-03T10:21:04.200Z,82.43
2024-02-03T10:22:03.807Z,82.42
2024-02-03T10:23:03.876Z,82.37
2024-02-03T10:24:03.813Z,82.35
2024-02-03T10:25:04.180Z,82.46
2024-02-03T10:26:04.306Z,82.55
2024-02-03T10:27:04.582Z,82.65
2024-02-03T10:28:04.321Z,82.62
2024-02-03T10:29:04.514Z,82.54
2024-02-03T10:30:04.625Z,82.55
2024-02-03T10:31:04.838Z,82.52
2024-02-03T10:32:04.491Z,82.63
2024-02-03T10:33:03.981Z,82.68
2024-02-03T10:34:04.220Z,82.70
2024-02-03T10:35:04.933Z,82.73
2024-02-03T10:36:04.192Z,82.69
2024-02-03T10:37:04.256Z,82.48
2024-02-03T10:38:04.421Z,82.36
2024-02-03T10:39:04.299Z,82.40
2024-02-03T10:40:03.972Z,82.43
2024-02-03T10:41:03.913Z,82.49
2024-02-03T10:42:04.272Z,82.53
2024-02-03T10:43:05.281Z,82.52
2024-02-03T10:44:04.499Z,82.56
2024-02-03T10:45:04.769Z,82.49
2024-02-03T10:46:04.561Z,82.38
2024-02-03T10:47:04.217Z,82.41
2024-02-03T10:48:05.326Z,82.47
2024-02-03T10:49:05.066Z,82.41
2024-02-03T10:50:04.429Z,82.36
2024-02-03T10:51:03.922Z,82.30
2024-02-03T10:52:04.421Z,82.19
2024-02-03T10:53:03.814Z,82.10
2024-02-03T10:54:04.179Z,82.11
2024-02-03T10:55:03.866Z,82.18
2024-02-03T10:56:04.700Z,82.26
2024-02-03T10:57:04.358Z,82.20
2024-02-03T10:58:03.846Z,82.19
2024-02-03T10:59:04.450Z,82.26
2024-02-03T11:00:06.338Z,82.27
2024-02-03T11:01:05.106Z,82.30
2024-02-03T11:02:05.261Z,82.27
2024-02-03T11:03:04.543Z,82.09
2024-02-03T11:04:04.162Z,82.10
2024-02-03T11:05:05.108Z,82.18
2024-02-03T11:06:04.168Z,82.20
2024-02-03T11:07:03.800Z,82.23
2024-02-03T11:08:03.824Z,82.25
2024-02-03T11:09:04.280Z,82.25
2024-02-03T11:10:04.052Z,82.23
2024-02-03T11:11:04.406Z,82.10
2024-02-03T11:12:03.879Z,82.14
2024-02-03T11:13:04.349Z,82.09
2024-02-03T11:14:03.819Z,82.11
2024-02-03T11:15:04.695Z,82.10
2024-02-03T11:16:04.853Z,82.13
2024-02-03T11:17:04.995Z,82.12
2024-02-03T11:18:04.295Z,82.07
2024-02-03T11:19:04.999Z,82.07
2024-02-03T11:20:04.851Z,82.07
2024-02-03T11:21:03.826Z,82.06
2024-02-03T11:22:03.751Z,82.05
2024-02-03T11:23:04.052Z,82.04
2024-02-03T11:24:04.589Z,82.05
2024-02-03T11:25:04.177Z,82.08
2024-02-03T11:26:03.780Z,81.96
2024-02-03T11:27:04.482Z,81.87
2024-02-03T11:28:03.737Z,81.84
2024-02-03T11:29:04.146Z,81.47
2024-02-03T11:30:05.039Z,81.5
2024-02-03T11:31:03.943Z,81.57
2024-02-03T11:32:04.472Z,81.57
2024-02-03T11:33:04.301Z,81.41
2024-02-03T11:34:05.293Z,81.39
2024-02-03T11:35:04.168Z,81.44
2024-02-03T11:36:04.700Z,81.44
2024-02-03T11:37:04.312Z,81.45
2024-02-03T11:38:04.393Z,81.45
2024-02-03T11:39:04.615Z,81.45
2024-02-03T11:40:04.483Z,81.45
2024-02-03T11:41:04.261Z,81.41
2024-02-03T11:42:04.184Z,81.28
2024-02-03T11:43:03.784Z,81.13
2024-02-03T11:44:04.309Z,81.05
2024-02-03T11:45:04.393Z,80.99
2024-02-03T11:46:03.885Z,80.98
2024-02-03T11:47:04.487Z,80.96
2024-02-03T11:48:04.208Z,80.98
2024-02-03T11:49:04.759Z,81.02
2024-02-03T11:50:04.074Z,81.06
2024-02-03T11:51:03.493Z,80.70
2024-02-03T11:52:03.474Z,80.45
2024-02-03T11:53:03.703Z,80.50
2024-02-03T11:54:04.025Z,80.56
2024-02-03T11:55:04.523Z,80.56
2024-02-03T11:56:03.736Z,80.58
2024-02-03T11:57:04.017Z,80.73
2024-02-03T11:58:04.365Z,80.76
2024-02-03T11:59:03.615Z,80.80
2024-02-03T12:00:05.910Z,80.85
2024-02-03T12:01:03.755Z,80.92
2024-02-03T12:02:05.110Z,80.96
2024-02-03T12:03:04.221Z,80.94
2024-02-03T12:04:04.614Z,80.88
2024-02-03T12:05:04.976Z,80.92
2024-02-03T12:06:03.871Z,80.94
2024-02-03T12:07:04.081Z,80.90
2024-02-03T12:08:04.589Z,80.90
2024-02-03T12:09:04.878Z,80.95
2024-02-03T12:10:03.953Z,81.01
2024-02-03T12:11:05.272Z,81.06
2024-02-03T12:12:03.587Z,81.07
2024-02-03T12:13:03.844Z,81.02
2024-02-03T12:14:03.726Z,80.97
2024-02-03T12:15:04.447Z,81.03
2024-02-03T12:16:03.825Z,80.98
2024-02-03T12:17:04.130Z,81.01
2024-02-03T12:18:04.126Z,80.93
2024-02-03T12:19:04.433Z,81.01
2024-02-03T12:20:04.808Z,81.13
2024-02-03T12:21:03.369Z,80.88
2024-02-03T12:22:03.774Z,80.61
2024-02-03T12:23:03.856Z,80.37
2024-02-03T12:24:04.095Z,79.76
2024-02-03T12:25:03.873Z,79.5
2024-02-03T12:26:04.093Z,79.62
2024-02-03T12:27:04.381Z,79.60
2024-02-03T12:28:04.058Z,79.62
2024-02-03T12:29:03.820Z,79.80
2024-02-03T12:30:05.356Z,79.73
2024-02-03T12:31:04.073Z,79.46
2024-02-03T12:32:04.481Z,79.20
2024-02-03T12:33:04.295Z,79.07
2024-02-03T12:34:04.564Z,78.98
2024-02-03T12:35:04.147Z,78.94
2024-02-03T12:36:04.223Z,78.76
2024-02-03T12:37:03.461Z,78.75
2024-02-03T12:38:04.651Z,78.89
2024-02-03T12:39:03.888Z,79.08
2024-02-03T12:40:04.594Z,79.15
2024-02-03T12:41:03.753Z,79.29
2024-02-03T12:42:03.961Z,79.34
2024-02-03T12:43:04.482Z,79.23
2024-02-03T12:44:03.554Z,79.23
2024-02-03T12:45:04.274Z,79.16
2024-02-03T12:46:04.766Z,79.20
2024-02-03T12:47:04.934Z,79.16
2024-02-03T12:48:03.983Z,79.09
2024-02-03T12:49:04.430Z,79.05
2024-02-03T12:50:05.271Z,79.07
2024-02-03T12:51:03.959Z,79.09
2024-02-03T12:52:04.570Z,79.08
2024-02-03T12:53:03.638Z,79.19
2024-02-03T12:54:04.014Z,78.99
2024-02-03T12:55:04.638Z,79.01
2024-02-03T12:56:03.953Z,79.01